Amy C. Mc Allister — WCZ9520 — position and weather

sailwx.info

Track history (hours):
 
Tides and Currents Weather Stations Pressure Air Temp Water Temp Dewpoint Dewpoint Depression Visibility Wind Speed Wind Dir Waves Ship Positions

Amy C. Mc Allister

Owner: MC ALLISTER TOWING & TRANSPORTATION INC, NEW YORK, NY. More information available from US FCC via Universal Licensing System and Coast Guard Vessel Documentation Center.

Last reported at 2014-Dec-19 01:27 UTC. Time now 2014-Dec-19 14:16 UTC.
Position N 41°24' W 071°08'.

Length 27 m; draft 4.9 m.

Type: Towing. MMSI: 366995040.

Date/timePositionNaut miles runAvg speedWind from/ knotsBaromVisibWave heightAir tempDewpointWater temp
2014-Dec-19 01:27N 41°24' W 071°08'7 7.6
2014-Dec-19 00:33N 41°23' W 071°17'6 6.1
2014-Dec-18 23:33N 41°21' W 071°24'5 4.9
2014-Dec-18 22:33N 41°18' W 071°29'5 5.3
2014-Dec-18 21:33N 41°18' W 071°37'5 5.1
2014-Dec-18 20:33N 41°17' W 071°43'5 5.1
2014-Dec-18 19:33N 41°16' W 071°50'6 5.9
2014-Dec-18 18:33N 41°15' W 071°58'7 6.8
2014-Dec-18 17:33N 41°14' W 072°07'7 7.3
2014-Dec-18 16:33N 41°12' W 072°16'8 8.4
2014-Dec-18 15:33N 41°09' W 072°27'8 8.1
2014-Dec-18 14:33N 41°07' W 072°37'8 7.7
2014-Dec-18 13:33N 41°05' W 072°47'7 7.3
2014-Dec-18 12:33N 41°04' W 072°56'7 7.0
2014-Dec-18 11:33N 41°02' W 073°05'34 6.4
2014-Dec-18 06:18N 40°50' W 073°47'5 6.2
2014-Dec-18 05:32N 40°48' W 073°53'5 5.1
2014-Dec-18 04:33N 40°45' W 073°58'5 5.0
2014-Dec-18 03:33N 40°41' W 074°02'2 1.9
2014-Dec-18 02:33N 40°39' W 074°03'0 0.0
2014-Dec-18 01:33N 40°39' W 074°03'0 0.0
2014-Dec-18 00:34N 40°39' W 074°03'0 0.1
2014-Dec-17 23:33N 40°39' W 074°03'0 0.1
2014-Dec-17 22:33N 40°39' W 074°03'5 5.0
2014-Dec-17 21:33N 40°39' W 074°09'8 3.2
2014-Dec-17 19:10N 40°33' W 074°15'4 4.2
2014-Dec-17 18:14N 40°36' W 074°12'0 0.0
2014-Dec-17 17:33N 40°36' W 074°12'0 0.0
2014-Dec-17 16:33N 40°36' W 074°12'3 2.4
2014-Dec-17 15:27N 40°38' W 074°12'1 1.5
2014-Dec-17 14:33N 40°38' W 074°10'0 0.0
2014-Dec-17 13:34N 40°38' W 074°10'0 0.1
2014-Dec-17 11:33N 40°39' W 074°10'2 1.5
2014-Dec-17 10:32N 40°38' W 074°12'2 1.6
2014-Dec-17 09:33N 40°38' W 074°10'0 0.0
2014-Dec-17 07:33N 40°38' W 074°10'0 0.0
2014-Dec-17 06:21N 40°38' W 074°10'0 0.0
2014-Dec-17 05:32N 40°38' W 074°10'2 2.1
2014-Dec-17 04:33N 40°38' W 074°12'1 0.8
2014-Dec-17 03:32N 40°37' W 074°12'5 1.4
2014-Dec-17 00:06N 40°33' W 074°15'7 4.3
2014-Dec-16 22:33N 40°39' W 074°11'5 5.5
2014-Dec-16 21:33N 40°39' W 074°04'2 1.8
2014-Dec-16 20:33N 40°40' W 074°02'0 0.0
2014-Dec-16 19:33N 40°40' W 074°02'0 0.1
2014-Dec-16 18:33N 40°40' W 074°02'0 0.0
2014-Dec-16 17:33N 40°40' W 074°02'0 0.0
2014-Dec-16 16:33N 40°40' W 074°02'0 0.0
2014-Dec-16 15:33N 40°40' W 074°02'0 0.0
2014-Dec-16 14:33N 40°40' W 074°02'0 0.0
2014-Dec-16 13:33N 40°40' W 074°02'0 0.0
2014-Dec-16 12:33N 40°40' W 074°02'0 0.0
2014-Dec-16 11:33N 40°40' W 074°02'0 0.0
2014-Dec-16 10:33N 40°40' W 074°02'0 0.0
2014-Dec-16 09:33N 40°40' W 074°02'0 0.0
2014-Dec-16 08:33N 40°40' W 074°02'0 0.0
2014-Dec-16 07:33N 40°40' W 074°02'0 0.1
2014-Dec-16 06:33N 40°40' W 074°02'0 0.0
2014-Dec-16 05:33N 40°40' W 074°02'0 0.0
2014-Dec-16 04:33N 40°40' W 074°02'0 0.0
2014-Dec-16 03:32N 40°40' W 074°02'0 0.0
2014-Dec-16 02:33N 40°40' W 074°02'3 3.5
2014-Dec-16 01:33N 40°39' W 074°07'0 0.1
2014-Dec-16 00:26N 40°39' W 074°07'2 2.8
2014-Dec-15 23:32N 40°38' W 074°10'0 0.0
2014-Dec-15 22:31N 40°38' W 074°10'0 0.0
2014-Dec-15 21:22N 40°38' W 074°10'0 0.0
2014-Dec-15 20:33N 40°38' W 074°10'3 3.5
2014-Dec-15 19:33N 40°39' W 074°05'2 2.5
2014-Dec-15 18:33N 40°40' W 074°02'0 0.0
2014-Dec-15 17:33N 40°40' W 074°02'0 0.0
2014-Dec-15 16:33N 40°40' W 074°02'3 2.9
2014-Dec-15 15:33N 40°42' W 073°60'8 7.7
2014-Dec-15 14:33N 40°48' W 073°53'25 7.8
2014-Dec-15 11:22N 41°00' W 073°24'7 8.7
2014-Dec-15 10:33N 41°01' W 073°15'9 8.6
2014-Dec-15 09:32N 41°02' W 073°03'9 8.9
2014-Dec-15 08:33N 41°05' W 072°52'9 9.0
2014-Dec-15 07:33N 41°07' W 072°40'10 9.5
2014-Dec-15 06:33N 41°09' W 072°28'10 9.7
2014-Dec-15 05:33N 41°12' W 072°16'9 8.9
2014-Dec-15 04:33N 41°14' W 072°04'8 7.9
2014-Dec-15 03:33N 41°15' W 071°54'8 8.4
2014-Dec-15 02:33N 41°17' W 071°43'9 9.4
2014-Dec-15 01:33N 41°18' W 071°31'9 9.4
2014-Dec-15 00:33N 41°19' W 071°18'10 9.8
2014-Dec-14 23:33N 41°23' W 071°07'10 9.9
2014-Dec-14 22:33N 41°29' W 070°55'134 6.9
2014-Dec-14 03:07N 43°39' W 070°14'1 0.0
2014-Dec-13 10:18N 43°40' W 070°14'0 0.0
2014-Dec-13 07:15N 43°40' W 070°14'0 0.0
2014-Dec-13 04:19N 43°40' W 070°14'0 0.0
2014-Dec-13 03:31N 43°40' W 070°14'1 0.7
2014-Dec-13 02:28N 43°39' W 070°13'4 4.1
2014-Dec-13 01:33N 43°36' W 070°11'74 7.4
2014-Dec-12 15:33N 42°27' W 070°47'65 1.5
2014-Dec-10 20:32N 41°23' W 071°07'7 6.7
2014-Dec-10 19:33N 41°22' W 071°15'6 6.2
2014-Dec-10 18:33N 41°21' W 071°24'6 5.9
2014-Dec-10 17:33N 41°18' W 071°30'5 5.4
2014-Dec-10 16:33N 41°17' W 071°37'5 5.4
2014-Dec-10 15:33N 41°16' W 071°44'5 5.5
2014-Dec-10 14:33N 41°15' W 071°52'6 5.6
2014-Dec-10 13:33N 41°14' W 071°59'6 6.3
2014-Dec-10 12:33N 41°14' W 072°07'7 7.1
2014-Dec-10 11:33N 41°12' W 072°16'8 7.9
2014-Dec-10 10:34N 41°09' W 072°26'8 7.6
2014-Dec-10 09:33N 41°07' W 072°36'8 7.9
2014-Dec-10 08:33N 41°06' W 072°46'8 7.7
2014-Dec-10 07:33N 41°04' W 072°56'8 7.5
2014-Dec-10 06:32N 41°02' W 073°06'7 7.1
2014-Dec-10 05:33N 41°01' W 073°15'7 6.8
2014-Dec-10 04:33N 41°00' W 073°24'7 6.6
2014-Dec-10 03:32N 40°58' W 073°32'14 6.4
2014-Dec-10 01:24N 40°49' W 073°47'2 0.2
2014-Dec-09 17:25N 40°48' W 073°48'0 0.1
2014-Dec-09 16:16N 40°48' W 073°48'0 0.0
2014-Dec-09 06:27N 40°48' W 073°49'0 0.0
2014-Dec-09 05:33N 40°48' W 073°49'4 4.1
2014-Dec-09 04:30N 40°48' W 073°54'7 7.0
2014-Dec-09 03:33N 40°42' W 073°59'5 5.3
2014-Dec-09 02:34N 40°38' W 074°03'1 1.2
2014-Dec-09 01:33N 40°37' W 074°03'  
Track history (hours):
 
Tides and Currents Weather Stations Pressure Air Temp Water Temp Dewpoint Dewpoint Depression Visibility Wind Speed Wind Dir Waves Ship Positions

Amy C. Mc Allister

Owner: MC ALLISTER TOWING & TRANSPORTATION INC, NEW YORK, NY. More information available from US FCC via Universal Licensing System and Coast Guard Vessel Documentation Center.

Last reported at 2014-Dec-19 01:27 UTC. Time now 2014-Dec-19 14:16 UTC.
Position N 41°24' W 071°08'.

Length 27 m; draft 4.9 m.

Type: Towing. MMSI: 366995040.

Date/timePositionNaut miles runAvg speedWind from/ knotsBaromVisibWave heightAir tempDewpointWater temp
2014-Dec-19 01:27N 41°24' W 071°08'7 7.6
2014-Dec-19 00:33N 41°23' W 071°17'6 6.1
2014-Dec-18 23:33N 41°21' W 071°24'5 4.9
2014-Dec-18 22:33N 41°18' W 071°29'5 5.3
2014-Dec-18 21:33N 41°18' W 071°37'5 5.1
2014-Dec-18 20:33N 41°17' W 071°43'5 5.1
2014-Dec-18 19:33N 41°16' W 071°50'6 5.9
2014-Dec-18 18:33N 41°15' W 071°58'7 6.8
2014-Dec-18 17:33N 41°14' W 072°07'7 7.3
2014-Dec-18 16:33N 41°12' W 072°16'8 8.4
2014-Dec-18 15:33N 41°09' W 072°27'8 8.1
2014-Dec-18 14:33N 41°07' W 072°37'8 7.7
2014-Dec-18 13:33N 41°05' W 072°47'7 7.3
2014-Dec-18 12:33N 41°04' W 072°56'7 7.0
2014-Dec-18 11:33N 41°02' W 073°05'34 6.4
2014-Dec-18 06:18N 40°50' W 073°47'5 6.2
2014-Dec-18 05:32N 40°48' W 073°53'5 5.1
2014-Dec-18 04:33N 40°45' W 073°58'5 5.0
2014-Dec-18 03:33N 40°41' W 074°02'2 1.9
2014-Dec-18 02:33N 40°39' W 074°03'0 0.0
2014-Dec-18 01:33N 40°39' W 074°03'0 0.0
2014-Dec-18 00:34N 40°39' W 074°03'0 0.1
2014-Dec-17 23:33N 40°39' W 074°03'0 0.1
2014-Dec-17 22:33N 40°39' W 074°03'5 5.0
2014-Dec-17 21:33N 40°39' W 074°09'8 3.2
2014-Dec-17 19:10N 40°33' W 074°15'4 4.2
2014-Dec-17 18:14N 40°36' W 074°12'0 0.0
2014-Dec-17 17:33N 40°36' W 074°12'0 0.0
2014-Dec-17 16:33N 40°36' W 074°12'3 2.4
2014-Dec-17 15:27N 40°38' W 074°12'1 1.5
2014-Dec-17 14:33N 40°38' W 074°10'0 0.0
2014-Dec-17 13:34N 40°38' W 074°10'0 0.1
2014-Dec-17 11:33N 40°39' W 074°10'2 1.5
2014-Dec-17 10:32N 40°38' W 074°12'2 1.6
2014-Dec-17 09:33N 40°38' W 074°10'0 0.0
2014-Dec-17 07:33N 40°38' W 074°10'0 0.0
2014-Dec-17 06:21N 40°38' W 074°10'0 0.0
2014-Dec-17 05:32N 40°38' W 074°10'2 2.1
2014-Dec-17 04:33N 40°38' W 074°12'1 0.8
2014-Dec-17 03:32N 40°37' W 074°12'5 1.4
2014-Dec-17 00:06N 40°33' W 074°15'7 4.3
2014-Dec-16 22:33N 40°39' W 074°11'5 5.5
2014-Dec-16 21:33N 40°39' W 074°04'2 1.8
2014-Dec-16 20:33N 40°40' W 074°02'0 0.0
2014-Dec-16 19:33N 40°40' W 074°02'0 0.1
2014-Dec-16 18:33N 40°40' W 074°02'0 0.0
2014-Dec-16 17:33N 40°40' W 074°02'0 0.0
2014-Dec-16 16:33N 40°40' W 074°02'0 0.0
2014-Dec-16 15:33N 40°40' W 074°02'0 0.0
2014-Dec-16 14:33N 40°40' W 074°02'0 0.0
2014-Dec-16 13:33N 40°40' W 074°02'0 0.0
2014-Dec-16 12:33N 40°40' W 074°02'0 0.0
2014-Dec-16 11:33N 40°40' W 074°02'0 0.0
2014-Dec-16 10:33N 40°40' W 074°02'0 0.0
2014-Dec-16 09:33N 40°40' W 074°02'0 0.0
2014-Dec-16 08:33N 40°40' W 074°02'0 0.0
2014-Dec-16 07:33N 40°40' W 074°02'0 0.1
2014-Dec-16 06:33N 40°40' W 074°02'0 0.0
2014-Dec-16 05:33N 40°40' W 074°02'0 0.0
2014-Dec-16 04:33N 40°40' W 074°02'0 0.0
2014-Dec-16 03:32N 40°40' W 074°02'0 0.0
2014-Dec-16 02:33N 40°40' W 074°02'3 3.5
2014-Dec-16 01:33N 40°39' W 074°07'0 0.1
2014-Dec-16 00:26N 40°39' W 074°07'2 2.8
2014-Dec-15 23:32N 40°38' W 074°10'0 0.0
2014-Dec-15 22:31N 40°38' W 074°10'0 0.0
2014-Dec-15 21:22N 40°38' W 074°10'0 0.0
2014-Dec-15 20:33N 40°38' W 074°10'3 3.5
2014-Dec-15 19:33N 40°39' W 074°05'2 2.5
2014-Dec-15 18:33N 40°40' W 074°02'0 0.0
2014-Dec-15 17:33N 40°40' W 074°02'0 0.0
2014-Dec-15 16:33N 40°40' W 074°02'3 2.9
2014-Dec-15 15:33N 40°42' W 073°60'8 7.7
2014-Dec-15 14:33N 40°48' W 073°53'25 7.8
2014-Dec-15 11:22N 41°00' W 073°24'7 8.7
2014-Dec-15 10:33N 41°01' W 073°15'9 8.6
2014-Dec-15 09:32N 41°02' W 073°03'9 8.9
2014-Dec-15 08:33N 41°05' W 072°52'9 9.0
2014-Dec-15 07:33N 41°07' W 072°40'10 9.5
2014-Dec-15 06:33N 41°09' W 072°28'10 9.7
2014-Dec-15 05:33N 41°12' W 072°16'9 8.9
2014-Dec-15 04:33N 41°14' W 072°04'8 7.9
2014-Dec-15 03:33N 41°15' W 071°54'8 8.4
2014-Dec-15 02:33N 41°17' W 071°43'9 9.4
2014-Dec-15 01:33N 41°18' W 071°31'9 9.4
2014-Dec-15 00:33N 41°19' W 071°18'10 9.8
2014-Dec-14 23:33N 41°23' W 071°07'10 9.9
2014-Dec-14 22:33N 41°29' W 070°55'134 6.9
2014-Dec-14 03:07N 43°39' W 070°14'1 0.0
2014-Dec-13 10:18N 43°40' W 070°14'0 0.0
2014-Dec-13 07:15N 43°40' W 070°14'0 0.0
2014-Dec-13 04:19N 43°40' W 070°14'0 0.0
2014-Dec-13 03:31N 43°40' W 070°14'1 0.7
2014-Dec-13 02:28N 43°39' W 070°13'4 4.1
2014-Dec-13 01:33N 43°36' W 070°11'74 7.4
2014-Dec-12 15:33N 42°27' W 070°47'65 1.5
2014-Dec-10 20:32N 41°23' W 071°07'7 6.7
2014-Dec-10 19:33N 41°22' W 071°15'6 6.2
2014-Dec-10 18:33N 41°21' W 071°24'6 5.9
2014-Dec-10 17:33N 41°18' W 071°30'5 5.4
2014-Dec-10 16:33N 41°17' W 071°37'5 5.4
2014-Dec-10 15:33N 41°16' W 071°44'5 5.5
2014-Dec-10 14:33N 41°15' W 071°52'6 5.6
2014-Dec-10 13:33N 41°14' W 071°59'6 6.3
2014-Dec-10 12:33N 41°14' W 072°07'7 7.1
2014-Dec-10 11:33N 41°12' W 072°16'8 7.9
2014-Dec-10 10:34N 41°09' W 072°26'8 7.6
2014-Dec-10 09:33N 41°07' W 072°36'8 7.9
2014-Dec-10 08:33N 41°06' W 072°46'8 7.7
2014-Dec-10 07:33N 41°04' W 072°56'8 7.5
2014-Dec-10 06:32N 41°02' W 073°06'7 7.1
2014-Dec-10 05:33N 41°01' W 073°15'7 6.8
2014-Dec-10 04:33N 41°00' W 073°24'7 6.6
2014-Dec-10 03:32N 40°58' W 073°32'14 6.4
2014-Dec-10 01:24N 40°49' W 073°47'2 0.2
2014-Dec-09 17:25N 40°48' W 073°48'0 0.1
2014-Dec-09 16:16N 40°48' W 073°48'0 0.0
2014-Dec-09 06:27N 40°48' W 073°49'0 0.0
2014-Dec-09 05:33N 40°48' W 073°49'4 4.1
2014-Dec-09 04:30N 40°48' W 073°54'7 7.0
2014-Dec-09 03:33N 40°42' W 073°59'5 5.3
2014-Dec-09 02:34N 40°38' W 074°03'1 1.2
2014-Dec-09 01:33N 40°37' W 074°03'  

Dump ship's entire track history